Salona — J8B4719 — position and weather

sailwx.info

Track history (hours):
 
Tides and Currents Weather Stations Pressure Air Temp Water Temp Dewpoint Dewpoint Depression Visibility Wind Speed Wind Dir Waves Ship Positions

Salona

Last reported at 2014-Jul-29 14:33 UTC. Time now 2014-Jul-29 14:48 UTC.
Position N 35°51' E 014°39'.

Length 70 m; draft 3.4 m.

Type: Cargo ship. MMSI: 376099000.

Date/timePositionNaut miles runAvg speedWind from/ knotsBaromVisibWave heightAir tempDewpointWater temp
2014-Jul-29 14:33N 35°51' E 014°39'0 0.0
2014-Jul-29 13:33N 35°51' E 014°39'0 0.1
2014-Jul-29 12:33N 35°51' E 014°39'0 0.0
2014-Jul-29 11:33N 35°51' E 014°39'0 0.0
2014-Jul-29 10:12N 35°51' E 014°39'0 0.0
2014-Jul-29 09:30N 35°51' E 014°39'0 0.0
2014-Jul-29 07:21N 35°51' E 014°39'0 0.0
2014-Jul-29 06:27N 35°51' E 014°39'0 0.0
2014-Jul-28 20:18N 35°51' E 014°39'0 0.0
2014-Jul-28 18:21N 35°51' E 014°39'0 0.0
2014-Jul-28 16:15N 35°51' E 014°39'0 0.0
2014-Jul-28 15:33N 35°51' E 014°39'0 0.0
2014-Jul-28 14:33N 35°51' E 014°39'0 0.0
2014-Jul-28 13:33N 35°51' E 014°39'0 0.0
2014-Jul-28 12:30N 35°51' E 014°39'0 0.0
2014-Jul-28 11:33N 35°51' E 014°39'0 0.0
2014-Jul-28 10:33N 35°51' E 014°39'0 0.0
2014-Jul-28 08:24N 35°51' E 014°39'0 0.0
2014-Jul-28 07:30N 35°51' E 014°39'0 0.0
2014-Jul-28 06:32N 35°51' E 014°39'0 0.0
2014-Jul-28 05:26N 35°51' E 014°39'0 0.0
2014-Jul-28 04:32N 35°51' E 014°39'0 0.0
2014-Jul-28 03:26N 35°51' E 014°39'0 0.0
2014-Jul-27 20:05N 35°51' E 014°39'0 0.0
2014-Jul-27 19:11N 35°51' E 014°39'0 0.0
2014-Jul-27 18:32N 35°51' E 014°39'0 0.0
2014-Jul-27 17:29N 35°51' E 014°39'0 0.0
2014-Jul-27 16:29N 35°51' E 014°39'0 0.0
2014-Jul-27 15:29N 35°51' E 014°39'0 0.1
2014-Jul-27 14:32N 35°51' E 014°39'0 0.0
2014-Jul-27 13:26N 35°51' E 014°39'0 0.0
2014-Jul-27 12:32N 35°51' E 014°39'0 0.0
2014-Jul-26 21:29N 35°51' E 014°39'0 0.0
2014-Jul-26 20:32N 35°51' E 014°39'0 0.0
2014-Jul-26 19:31N 35°51' E 014°39'0 0.0
2014-Jul-26 18:31N 35°51' E 014°39'0 0.0
2014-Jul-26 17:16N 35°51' E 014°39'0 0.0
2014-Jul-26 16:22N 35°51' E 014°39'0 0.3
2014-Jul-26 15:04N 35°52' E 014°39'1 2.5
2014-Jul-26 14:34N 35°52' E 014°40'5 4.8
2014-Jul-26 13:28N 35°57' E 014°42'7 7.2
2014-Jul-26 12:33N 36°03' E 014°46'7 7.5
2014-Jul-26 11:33N 36°09' E 014°51'7 7.4
2014-Jul-26 10:33N 36°15' E 014°56'  
Track history (hours):
 
Tides and Currents Weather Stations Pressure Air Temp Water Temp Dewpoint Dewpoint Depression Visibility Wind Speed Wind Dir Waves Ship Positions

Salona

Last reported at 2014-Jul-29 14:33 UTC. Time now 2014-Jul-29 14:48 UTC.
Position N 35°51' E 014°39'.

Length 70 m; draft 3.4 m.

Type: Cargo ship. MMSI: 376099000.

Date/timePositionNaut miles runAvg speedWind from/ knotsBaromVisibWave heightAir tempDewpointWater temp
2014-Jul-29 14:33N 35°51' E 014°39'0 0.0
2014-Jul-29 13:33N 35°51' E 014°39'0 0.1
2014-Jul-29 12:33N 35°51' E 014°39'0 0.0
2014-Jul-29 11:33N 35°51' E 014°39'0 0.0
2014-Jul-29 10:12N 35°51' E 014°39'0 0.0
2014-Jul-29 09:30N 35°51' E 014°39'0 0.0
2014-Jul-29 07:21N 35°51' E 014°39'0 0.0
2014-Jul-29 06:27N 35°51' E 014°39'0 0.0
2014-Jul-28 20:18N 35°51' E 014°39'0 0.0
2014-Jul-28 18:21N 35°51' E 014°39'0 0.0
2014-Jul-28 16:15N 35°51' E 014°39'0 0.0
2014-Jul-28 15:33N 35°51' E 014°39'0 0.0
2014-Jul-28 14:33N 35°51' E 014°39'0 0.0
2014-Jul-28 13:33N 35°51' E 014°39'0 0.0
2014-Jul-28 12:30N 35°51' E 014°39'0 0.0
2014-Jul-28 11:33N 35°51' E 014°39'0 0.0
2014-Jul-28 10:33N 35°51' E 014°39'0 0.0
2014-Jul-28 08:24N 35°51' E 014°39'0 0.0
2014-Jul-28 07:30N 35°51' E 014°39'0 0.0
2014-Jul-28 06:32N 35°51' E 014°39'0 0.0
2014-Jul-28 05:26N 35°51' E 014°39'0 0.0
2014-Jul-28 04:32N 35°51' E 014°39'0 0.0
2014-Jul-28 03:26N 35°51' E 014°39'0 0.0
2014-Jul-27 20:05N 35°51' E 014°39'0 0.0
2014-Jul-27 19:11N 35°51' E 014°39'0 0.0
2014-Jul-27 18:32N 35°51' E 014°39'0 0.0
2014-Jul-27 17:29N 35°51' E 014°39'0 0.0
2014-Jul-27 16:29N 35°51' E 014°39'0 0.0
2014-Jul-27 15:29N 35°51' E 014°39'0 0.1
2014-Jul-27 14:32N 35°51' E 014°39'0 0.0
2014-Jul-27 13:26N 35°51' E 014°39'0 0.0
2014-Jul-27 12:32N 35°51' E 014°39'0 0.0
2014-Jul-26 21:29N 35°51' E 014°39'0 0.0
2014-Jul-26 20:32N 35°51' E 014°39'0 0.0
2014-Jul-26 19:31N 35°51' E 014°39'0 0.0
2014-Jul-26 18:31N 35°51' E 014°39'0 0.0
2014-Jul-26 17:16N 35°51' E 014°39'0 0.0
2014-Jul-26 16:22N 35°51' E 014°39'0 0.3
2014-Jul-26 15:04N 35°52' E 014°39'1 2.5
2014-Jul-26 14:34N 35°52' E 014°40'5 4.8
2014-Jul-26 13:28N 35°57' E 014°42'7 7.2
2014-Jul-26 12:33N 36°03' E 014°46'7 7.5
2014-Jul-26 11:33N 36°09' E 014°51'7 7.4
2014-Jul-26 10:33N 36°15' E 014°56'  

Dump ship's entire track history